Accueil
Images satellite Prévisions 15 joursClimatMétéo marine Cyclones Foudre AéroportsFAQ Actualités A propos
Météo : Europe Afrique Amérique du Nord Amérique du Sud Asie Australie-Océanie Autres
Langues Contact

Carcassonne, France

Salvaza

latitude: 43-13N, longitude: 002-19E, altitude: 130 m


METAR: LFMK 220600Z AUTO 29017KT 9999 FEW054 11/06 Q1027
TAF: LFMK 220500Z 2206/2306 30020KT 9999 NSC TEMPO 2206/2219 30030G40KT BECMG 2220/2222 27015KT

Heure: 08:20 (06:20 UTC)

Observation

Le bulletin a été fait il y a 20 minutes, à 06:00 UTC
Vent 17 kt de ouest/nord-ouest
Température 11°C
Humidité 71%
Pression 1027 hPa
Visibilité 10 km ou plus
Quelques nuages à une hauteur de 5400 ft

Changer d'unités

Prévision

Le bulletin a été fait il y a 1 heure et 20 minutes, à 05:00 UTC
Prévision valable du 22 à 06 UTC au 23 à 06 UTC
Vent 20 kt de ouest/nord-ouest
Visibilité 10 km ou plus
Temporairement
du 22 à 06 UTC au 22 à 19 UTC
Vent 30 kt de ouest/nord-ouest avec des rafales jusqu'à 40 kt
Evoluant progressivement
du 22 à 20 UTC au 22 à 22 UTC
Vent 15 kt de ouest
Les informations qui figurent sur ce site font l'objet d'une clause de non-responsabilité
Météo : Europe Afrique Amérique du Nord Amérique du Sud Asie Australie-Océanie Autres
Images satellite Prévisions 15 joursClimatMétéo marine Cyclones Foudre AéroportsFAQ Langues Contact Actualités A propos